sensor_id;sensor_type;location;lat;lon;timestamp;pressure;altitude;pressure_sealevel;temperature;humidity
29239;BME280;16267;48.194;11.546;2023-08-06T00:01:31;95305.31;;;17.29;98.51
29239;BME280;16267;48.194;11.546;2023-08-06T00:03:57;95310.00;;;17.28;98.52
29239;BME280;16267;48.194;11.546;2023-08-06T00:06:24;95308.50;;;17.27;98.33
29239;BME280;16267;48.194;11.546;2023-08-06T00:08:50;95310.47;;;17.27;99.61
29239;BME280;16267;48.194;11.546;2023-08-06T00:11:15;95313.81;;;17.22;98.93
29239;BME280;16267;48.194;11.546;2023-08-06T00:13:41;95312.19;;;17.15;98.81
29239;BME280;16267;48.194;11.546;2023-08-06T00:16:12;95308.41;;;17.12;100.00
29239;BME280;16267;48.194;11.546;2023-08-06T00:18:38;95309.06;;;17.07;100.00
29239;BME280;16267;48.194;11.546;2023-08-06T00:21:04;95310.75;;;16.95;99.62
29239;BME280;16267;48.194;11.546;2023-08-06T00:23:30;95310.31;;;16.97;100.00
29239;BME280;16267;48.194;11.546;2023-08-06T00:25:56;95314.72;;;16.85;100.00
29239;BME280;16267;48.194;11.546;2023-08-06T00:28:21;95313.38;;;16.81;100.00
29239;BME280;16267;48.194;11.546;2023-08-06T00:30:53;95313.22;;;16.84;100.00
29239;BME280;16267;48.194;11.546;2023-08-06T00:33:20;95312.81;;;16.77;100.00
29239;BME280;16267;48.194;11.546;2023-08-06T00:35:46;95317.75;;;16.78;100.00
29239;BME280;16267;48.194;11.546;2023-08-06T00:38:12;95310.09;;;16.77;100.00
29239;BME280;16267;48.194;11.546;2023-08-06T00:40:38;95303.47;;;16.68;98.86
29239;BME280;16267;48.194;11.546;2023-08-06T00:43:03;95304.78;;;16.73;100.00
29239;BME280;16267;48.194;11.546;2023-08-06T00:45:30;95295.16;;;16.72;99.82
29239;BME280;16267;48.194;11.546;2023-08-06T00:47:56;95294.69;;;16.73;98.91
29239;BME280;16267;48.194;11.546;2023-08-06T00:50:22;95298.31;;;16.70;97.04
29239;BME280;16267;48.194;11.546;2023-08-06T00:52:51;95297.13;;;16.71;97.98
29239;BME280;16267;48.194;11.546;2023-08-06T00:55:17;95300.59;;;16.72;97.67
29239;BME280;16267;48.194;11.546;2023-08-06T00:57:44;95287.03;;;16.72;96.91
29239;BME280;16267;48.194;11.546;2023-08-06T01:00:10;95287.94;;;16.69;96.74
29239;BME280;16267;48.194;11.546;2023-08-06T01:02:37;95291.56;;;16.66;96.59
29239;BME280;16267;48.194;11.546;2023-08-06T01:05:03;95285.69;;;16.67;97.46
29239;BME280;16267;48.194;11.546;2023-08-06T01:13:16;95279.56;;;16.58;95.46
29239;BME280;16267;48.194;11.546;2023-08-06T01:15:50;95280.88;;;16.62;97.46
29239;BME280;16267;48.194;11.546;2023-08-06T01:18:20;95285.56;;;16.62;97.24
29239;BME280;16267;48.194;11.546;2023-08-06T01:20:45;95284.06;;;16.61;97.03
29239;BME280;16267;48.194;11.546;2023-08-06T01:23:11;95287.97;;;16.60;97.45
29239;BME280;16267;48.194;11.546;2023-08-06T01:26:10;95273.53;;;16.54;95.39
29239;BME280;16267;48.194;11.546;2023-08-06T01:31:15;95266.16;;;16.54;97.29
29239;BME280;16267;48.194;11.546;2023-08-06T01:33:45;95269.34;;;16.53;96.03
29239;BME280;16267;48.194;11.546;2023-08-06T01:36:16;95264.66;;;16.53;97.15
29239;BME280;16267;48.194;11.546;2023-08-06T01:38:42;95267.06;;;16.51;97.15
29239;BME280;16267;48.194;11.546;2023-08-06T01:41:08;95261.97;;;16.53;96.83
29239;BME280;16267;48.194;11.546;2023-08-06T01:43:33;95261.66;;;16.51;96.80
29239;BME280;16267;48.194;11.546;2023-08-06T01:45:59;95264.84;;;16.49;96.16
29239;BME280;16267;48.194;11.546;2023-08-06T01:48:25;95264.84;;;16.49;96.99
29239;BME280;16267;48.194;11.546;2023-08-06T01:50:51;95259.41;;;16.49;96.85
29239;BME280;16267;48.194;11.546;2023-08-06T01:53:17;95252.94;;;16.47;96.73
29239;BME280;16267;48.194;11.546;2023-08-06T01:55:50;95258.53;;;16.43;96.49
29239;BME280;16267;48.194;11.546;2023-08-06T01:58:16;95254.63;;;16.44;96.95
29239;BME280;16267;48.194;11.546;2023-08-06T02:00:42;95257.31;;;16.44;97.21
29239;BME280;16267;48.194;11.546;2023-08-06T02:03:07;95251.16;;;16.44;96.86
29239;BME280;16267;48.194;11.546;2023-08-06T02:05:33;95251.16;;;16.44;96.60
29239;BME280;16267;48.194;11.546;2023-08-06T02:07:59;95241.69;;;16.39;96.15
29239;BME280;16267;48.194;11.546;2023-08-06T02:10:25;95232.81;;;16.39;96.69
29239;BME280;16267;48.194;11.546;2023-08-06T02:12:50;95243.34;;;16.37;96.59
29239;BME280;16267;48.194;11.546;2023-08-06T02:15:16;95234.00;;;16.38;96.91
29239;BME280;16267;48.194;11.546;2023-08-06T02:17:42;95229.81;;;16.37;96.59
29239;BME280;16267;48.194;11.546;2023-08-06T02:20:08;95237.19;;;16.36;96.81
29239;BME280;16267;48.194;11.546;2023-08-06T02:22:34;95236.31;;;16.30;96.77
29239;BME280;16267;48.194;11.546;2023-08-06T02:24:59;95227.44;;;16.30;97.27
29239;BME280;16267;48.194;11.546;2023-08-06T02:27:25;95222.16;;;16.26;96.25
29239;BME280;16267;48.194;11.546;2023-08-06T02:29:51;95211.81;;;16.24;97.61
29239;BME280;16267;48.194;11.546;2023-08-06T02:32:17;95211.81;;;16.24;97.28
29239;BME280;16267;48.194;11.546;2023-08-06T02:34:42;95202.94;;;16.24;97.01
29239;BME280;16267;48.194;11.546;2023-08-06T02:37:08;95211.94;;;16.21;95.37
29239;BME280;16267;48.194;11.546;2023-08-06T02:39:34;95208.34;;;16.24;96.90
29239;BME280;16267;48.194;11.546;2023-08-06T02:42:01;95207.56;;;16.23;96.71
29239;BME280;16267;48.194;11.546;2023-08-06T02:44:29;95205.78;;;16.20;95.83
29239;BME280;16267;48.194;11.546;2023-08-06T02:46:55;95196.75;;;16.23;96.79
29239;BME280;16267;48.194;11.546;2023-08-06T02:49:21;95187.13;;;16.22;96.62
29239;BME280;16267;48.194;11.546;2023-08-06T02:51:46;95177.78;;;16.23;96.68
29239;BME280;16267;48.194;11.546;2023-08-06T02:54:12;95168.94;;;16.23;96.81
29239;BME280;16267;48.194;11.546;2023-08-06T02:56:38;95172.38;;;16.23;95.88
29239;BME280;16267;48.194;11.546;2023-08-06T02:59:04;95176.00;;;16.20;95.95
29239;BME280;16267;48.194;11.546;2023-08-06T03:01:29;95178.25;;;16.22;96.33
29239;BME280;16267;48.194;11.546;2023-08-06T03:03:55;95179.44;;;16.21;96.29
29239;BME280;16267;48.194;11.546;2023-08-06T03:06:21;95182.94;;;16.21;96.23
29239;BME280;16267;48.194;11.546;2023-08-06T03:08:47;95182.34;;;16.17;96.05
29239;BME280;16267;48.194;11.546;2023-08-06T03:11:12;95183.06;;;16.18;96.13
29239;BME280;16267;48.194;11.546;2023-08-06T03:13:38;95189.69;;;16.17;95.93
29239;BME280;16267;48.194;11.546;2023-08-06T03:16:04;95195.28;;;16.13;94.90
29239;BME280;16267;48.194;11.546;2023-08-06T03:18:29;95190.63;;;16.04;94.07
29239;BME280;16267;48.194;11.546;2023-08-06T03:20:55;95190.03;;;16.00;96.19
29239;BME280;16267;48.194;11.546;2023-08-06T03:23:22;95192.75;;;16.00;97.44
29239;BME280;16267;48.194;11.546;2023-08-06T03:25:48;95197.41;;;16.00;97.00
29239;BME280;16267;48.194;11.546;2023-08-06T03:28:13;95188.56;;;15.99;96.54
29239;BME280;16267;48.194;11.546;2023-08-06T03:30:39;95190.66;;;15.95;96.40
29239;BME280;16267;48.194;11.546;2023-08-06T03:33:05;95194.09;;;15.96;97.00
29239;BME280;16267;48.194;11.546;2023-08-06T03:35:31;95184.50;;;15.95;96.53
29239;BME280;16267;48.194;11.546;2023-08-06T03:37:56;95189.91;;;15.95;96.27
29239;BME280;16267;48.194;11.546;2023-08-06T03:40:22;95177.13;;;15.95;96.04
29239;BME280;16267;48.194;11.546;2023-08-06T03:42:48;95184.78;;;15.97;95.75
29239;BME280;16267;48.194;11.546;2023-08-06T03:45:14;95191.13;;;15.94;94.95
29239;BME280;16267;48.194;11.546;2023-08-06T03:47:39;95181.03;;;15.94;95.46
29239;BME280;16267;48.194;11.546;2023-08-06T03:50:05;95176.81;;;15.93;95.46
29239;BME280;16267;48.194;11.546;2023-08-06T03:52:31;95173.38;;;15.93;95.22
29239;BME280;16267;48.194;11.546;2023-08-06T03:54:57;95173.38;;;15.93;95.52
29239;BME280;16267;48.194;11.546;2023-08-06T03:57:23;95171.88;;;15.92;95.07
29239;BME280;16267;48.194;11.546;2023-08-06T03:59:48;95175.03;;;15.90;94.88
29239;BME280;16267;48.194;11.546;2023-08-06T04:02:14;95171.28;;;15.88;94.62
29239;BME280;16267;48.194;11.546;2023-08-06T04:04:40;95169.94;;;15.83;94.79
29239;BME280;16267;48.194;11.546;2023-08-06T04:07:05;95171.91;;;15.82;95.72
29239;BME280;16267;48.194;11.546;2023-08-06T04:09:31;95169.19;;;15.82;95.63
29239;BME280;16267;48.194;11.546;2023-08-06T04:11:57;95169.47;;;15.84;95.55
29239;BME280;16267;48.194;11.546;2023-08-06T04:14:25;95169.94;;;15.83;95.53
29239;BME280;16267;48.194;11.546;2023-08-06T04:16:51;95170.69;;;15.83;95.35
29239;BME280;16267;48.194;11.546;2023-08-06T04:19:17;95170.69;;;15.83;94.98
29239;BME280;16267;48.194;11.546;2023-08-06T04:21:42;95172.78;;;15.79;93.75
29239;BME280;16267;48.194;11.546;2023-08-06T04:24:08;95182.41;;;15.80;95.62
29239;BME280;16267;48.194;11.546;2023-08-06T04:26:34;95176.88;;;15.75;95.06
29239;BME280;16267;48.194;11.546;2023-08-06T04:29:00;95179.09;;;15.76;96.22
29239;BME280;16267;48.194;11.546;2023-08-06T04:31:25;95180.31;;;15.75;95.69
29239;BME280;16267;48.194;11.546;2023-08-06T04:33:51;95175.34;;;15.74;95.55
29239;BME280;16267;48.194;11.546;2023-08-06T04:36:17;95177.63;;;15.75;96.29
29239;BME280;16267;48.194;11.546;2023-08-06T04:38:42;95175.81;;;15.72;96.20
29239;BME280;16267;48.194;11.546;2023-08-06T04:41:11;95176.72;;;15.69;96.19
29239;BME280;16267;48.194;11.546;2023-08-06T04:43:37;95188.28;;;15.70;97.37
29239;BME280;16267;48.194;11.546;2023-08-06T04:46:03;95184.84;;;15.69;96.97
29239;BME280;16267;48.194;11.546;2023-08-06T04:48:28;95169.34;;;15.70;97.55
29239;BME280;16267;48.194;11.546;2023-08-06T04:50:54;95188.41;;;15.66;97.00
29239;BME280;16267;48.194;11.546;2023-08-06T04:53:20;95189.16;;;15.67;98.07
29239;BME280;16267;48.194;11.546;2023-08-06T04:55:46;95187.38;;;15.64;97.20
29239;BME280;16267;48.194;11.546;2023-08-06T04:58:13;95180.31;;;15.66;98.54
29239;BME280;16267;48.194;11.546;2023-08-06T05:00:39;95179.53;;;15.66;98.28
29239;BME280;16267;48.194;11.546;2023-08-06T05:03:06;95183.00;;;15.66;97.33
29239;BME280;16267;48.194;11.546;2023-08-06T05:05:33;95181.97;;;15.64;96.29
29239;BME280;16267;48.194;11.546;2023-08-06T05:07:58;95178.22;;;15.61;98.03
29239;BME280;16267;48.194;11.546;2023-08-06T05:10:25;95174.59;;;15.64;98.47
29239;BME280;16267;48.194;11.546;2023-08-06T05:12:52;95178.50;;;15.63;97.97
29239;BME280;16267;48.194;11.546;2023-08-06T05:15:18;95177.31;;;15.64;97.72
29239;BME280;16267;48.194;11.546;2023-08-06T05:17:44;95181.50;;;15.65;97.53
29239;BME280;16267;48.194;11.546;2023-08-06T05:20:10;95173.09;;;15.63;97.13
29239;BME280;16267;48.194;11.546;2023-08-06T05:22:36;95169.94;;;15.65;97.66
29239;BME280;16267;48.194;11.546;2023-08-06T05:25:02;95177.59;;;15.66;97.34
29239;BME280;16267;48.194;11.546;2023-08-06T05:27:28;95172.94;;;15.67;97.18
29239;BME280;16267;48.194;11.546;2023-08-06T05:29:55;95178.69;;;15.69;97.08
29239;BME280;16267;48.194;11.546;2023-08-06T05:32:22;95182.13;;;15.69;96.88
29239;BME280;16267;48.194;11.546;2023-08-06T05:34:48;95188.59;;;15.72;96.87
29239;BME280;16267;48.194;11.546;2023-08-06T05:37:13;95184.69;;;15.73;96.91
29239;BME280;16267;48.194;11.546;2023-08-06T05:39:39;95187.38;;;15.73;96.77
29239;BME280;16267;48.194;11.546;2023-08-06T05:42:05;95185.88;;;15.72;96.17
29239;BME280;16267;48.194;11.546;2023-08-06T05:44:31;95184.69;;;15.73;97.61
29239;BME280;16267;48.194;11.546;2023-08-06T05:46:57;95183.94;;;15.72;97.41
29239;BME280;16267;48.194;11.546;2023-08-06T05:49:22;95187.06;;;15.71;98.24
29239;BME280;16267;48.194;11.546;2023-08-06T05:51:48;95191.31;;;15.72;98.49
29239;BME280;16267;48.194;11.546;2023-08-06T05:54:14;95182.44;;;15.71;98.28
29239;BME280;16267;48.194;11.546;2023-08-06T05:56:39;95183.47;;;15.74;98.07
29239;BME280;16267;48.194;11.546;2023-08-06T05:59:05;95186.47;;;15.76;97.78
29239;BME280;16267;48.194;11.546;2023-08-06T06:01:31;95189.19;;;15.76;98.29
29239;BME280;16267;48.194;11.546;2023-08-06T06:03:56;95185.28;;;15.77;98.13
29239;BME280;16267;48.194;11.546;2023-08-06T06:06:22;95180.63;;;15.77;98.51
29239;BME280;16267;48.194;11.546;2023-08-06T06:08:48;95183.16;;;15.81;98.34
29239;BME280;16267;48.194;11.546;2023-08-06T06:11:16;95174.59;;;15.82;97.94
29239;BME280;16267;48.194;11.546;2023-08-06T06:13:41;95183.47;;;15.83;97.70
29239;BME280;16267;48.194;11.546;2023-08-06T06:16:07;95186.78;;;15.78;99.42
29239;BME280;16267;48.194;11.546;2023-08-06T06:18:33;95176.41;;;15.76;98.39
29239;BME280;16267;48.194;11.546;2023-08-06T06:20:58;95186.19;;;15.83;99.38
29239;BME280;16267;48.194;11.546;2023-08-06T06:23:24;95186.91;;;15.83;99.69
29239;BME280;16267;48.194;11.546;2023-08-06T06:25:50;95183.59;;;15.89;99.69
29239;BME280;16267;48.194;11.546;2023-08-06T06:28:18;95198.50;;;15.84;100.00
29239;BME280;16267;48.194;11.546;2023-08-06T06:30:43;95196.09;;;15.86;99.87
29239;BME280;16267;48.194;11.546;2023-08-06T06:33:09;95183.59;;;15.89;100.00
29239;BME280;16267;48.194;11.546;2023-08-06T06:35:35;95190.22;;;15.78;98.90
29239;BME280;16267;48.194;11.546;2023-08-06T06:38:01;95187.81;;;15.80;99.84
29239;BME280;16267;48.194;11.546;2023-08-06T06:40:28;95189.16;;;15.85;99.51
29239;BME280;16267;48.194;11.546;2023-08-06T06:42:53;95181.22;;;15.72;98.25
29239;BME280;16267;48.194;11.546;2023-08-06T06:45:19;95186.03;;;15.77;99.25
29239;BME280;16267;48.194;11.546;2023-08-06T06:47:45;95190.22;;;15.78;99.79
29239;BME280;16267;48.194;11.546;2023-08-06T06:50:11;95186.19;;;15.83;97.71
29239;BME280;16267;48.194;11.546;2023-08-06T06:52:37;95181.94;;;15.82;96.29
29239;BME280;16267;48.194;11.546;2023-08-06T06:55:03;95181.22;;;15.91;97.17
29239;BME280;16267;48.194;11.546;2023-08-06T06:57:29;95184.50;;;15.95;97.15
29239;BME280;16267;48.194;11.546;2023-08-06T06:59:55;95186.47;;;15.94;94.77
29239;BME280;16267;48.194;11.546;2023-08-06T07:02:20;95181.22;;;15.91;95.40
29239;BME280;16267;48.194;11.546;2023-08-06T07:04:46;95173.84;;;15.91;95.22
29239;BME280;16267;48.194;11.546;2023-08-06T07:07:12;95179.38;;;15.88;91.97
29239;BME280;16267;48.194;11.546;2023-08-06T07:09:38;95179.81;;;15.95;93.08
29239;BME280;16267;48.194;11.546;2023-08-06T07:12:04;95173.38;;;16.02;93.00
29239;BME280;16267;48.194;11.546;2023-08-06T07:14:30;95172.59;;;16.11;94.11
29239;BME280;16267;48.194;11.546;2023-08-06T07:16:56;95181.00;;;16.03;90.81
29239;BME280;16267;48.194;11.546;2023-08-06T07:19:21;95173.38;;;15.93;86.74
29239;BME280;16267;48.194;11.546;2023-08-06T07:21:47;95184.50;;;15.95;88.58
29239;BME280;16267;48.194;11.546;2023-08-06T07:24:13;95197.13;;;15.89;86.14
29239;BME280;16267;48.194;11.546;2023-08-06T07:26:39;95193.81;;;16.03;89.38
29239;BME280;16267;48.194;11.546;2023-08-06T07:29:04;95197.47;;;15.72;88.32
29239;BME280;16267;48.194;11.546;2023-08-06T07:31:30;95199.41;;;15.81;89.60
29239;BME280;16267;48.194;11.546;2023-08-06T07:33:56;95185.84;;;15.90;91.33
29239;BME280;16267;48.194;11.546;2023-08-06T07:36:21;95178.63;;;15.96;91.11
29239;BME280;16267;48.194;11.546;2023-08-06T07:38:47;95179.22;;;16.00;91.90
29239;BME280;16267;48.194;11.546;2023-08-06T07:41:17;95176.84;;;15.84;92.28
29239;BME280;16267;48.194;11.546;2023-08-06T07:43:42;95170.06;;;15.89;93.43
29239;BME280;16267;48.194;11.546;2023-08-06T07:46:08;95176.53;;;15.91;95.04
29239;BME280;16267;48.194;11.546;2023-08-06T07:48:34;95171.13;;;15.91;95.66
29239;BME280;16267;48.194;11.546;2023-08-06T07:51:00;95162.41;;;15.96;96.30
29239;BME280;16267;48.194;11.546;2023-08-06T07:53:26;95161.50;;;15.99;94.99
29239;BME280;16267;48.194;11.546;2023-08-06T07:55:57;95163.59;;;15.95;93.87
29239;BME280;16267;48.194;11.546;2023-08-06T07:58:25;95174.09;;;16.02;94.75
29239;BME280;16267;48.194;11.546;2023-08-06T08:00:51;95168.56;;;15.97;91.76
29239;BME280;16267;48.194;11.546;2023-08-06T08:03:17;95170.03;;;16.07;94.03
29239;BME280;16267;48.194;11.546;2023-08-06T08:05:44;95166.69;;;16.12;93.64
29239;BME280;16267;48.194;11.546;2023-08-06T08:08:10;95171.91;;;15.82;88.81
29239;BME280;16267;48.194;11.546;2023-08-06T08:10:36;95167.19;;;16.01;90.36
29239;BME280;16267;48.194;11.546;2023-08-06T08:13:04;95158.34;;;15.92;89.16
29239;BME280;16267;48.194;11.546;2023-08-06T08:15:31;95149.44;;;16.00;90.50
29239;BME280;16267;48.194;11.546;2023-08-06T08:17:57;95147.31;;;16.04;90.14
29239;BME280;16267;48.194;11.546;2023-08-06T08:20:23;95152.28;;;16.06;90.01
29239;BME280;16267;48.194;11.546;2023-08-06T08:22:49;95151.97;;;16.04;87.36
29239;BME280;16267;48.194;11.546;2023-08-06T08:25:16;95151.38;;;16.09;88.26
29239;BME280;16267;48.194;11.546;2023-08-06T08:27:42;95144.56;;;16.23;88.14
29239;BME280;16267;48.194;11.546;2023-08-06T08:30:08;95145.56;;;16.35;88.83
29239;BME280;16267;48.194;11.546;2023-08-06T08:32:33;95140.66;;;16.24;86.14
29239;BME280;16267;48.194;11.546;2023-08-06T08:34:59;95137.94;;;16.24;85.11
29239;BME280;16267;48.194;11.546;2023-08-06T08:37:25;95143.63;;;16.26;84.59
29239;BME280;16267;48.194;11.546;2023-08-06T08:39:51;95146.19;;;16.30;85.07
29239;BME280;16267;48.194;11.546;2023-08-06T08:42:17;95148.63;;;16.27;82.59
29239;BME280;16267;48.194;11.546;2023-08-06T08:44:44;95148.47;;;16.22;81.84
29239;BME280;16267;48.194;11.546;2023-08-06T08:47:11;95146.66;;;16.28;83.37
29239;BME280;16267;48.194;11.546;2023-08-06T08:49:37;95150.97;;;16.35;82.62
29239;BME280;16267;48.194;11.546;2023-08-06T08:52:04;95158.47;;;16.40;82.77
29239;BME280;16267;48.194;11.546;2023-08-06T08:54:38;95154.66;;;16.22;80.46
29239;BME280;16267;48.194;11.546;2023-08-06T08:57:05;95149.66;;;16.21;79.61
29239;BME280;16267;48.194;11.546;2023-08-06T08:59:33;95150.84;;;16.29;81.17
29239;BME280;16267;48.194;11.546;2023-08-06T09:02:01;95157.31;;;16.32;81.17
29239;BME280;16267;48.194;11.546;2023-08-06T09:04:29;95156.72;;;16.27;79.81
29239;BME280;16267;48.194;11.546;2023-08-06T09:06:58;95154.66;;;16.22;78.71
29239;BME280;16267;48.194;11.546;2023-08-06T09:09:35;95162.47;;;16.20;77.27
29239;BME280;16267;48.194;11.546;2023-08-06T09:12:13;95166.22;;;16.23;79.11
29239;BME280;16267;48.194;11.546;2023-08-06T09:14:40;95168.34;;;16.10;79.95
29239;BME280;16267;48.194;11.546;2023-08-06T09:17:06;95166.88;;;16.09;81.75
29239;BME280;16267;48.194;11.546;2023-08-06T09:19:32;95165.22;;;16.11;83.39
29239;BME280;16267;48.194;11.546;2023-08-06T09:21:59;95179.31;;;16.15;84.58
29239;BME280;16267;48.194;11.546;2023-08-06T09:24:24;95179.53;;;15.93;81.13
29239;BME280;16267;48.194;11.546;2023-08-06T09:26:51;95197.28;;;15.85;81.00
29239;BME280;16267;48.194;11.546;2023-08-06T09:29:17;95175.66;;;15.76;80.67
29239;BME280;16267;48.194;11.546;2023-08-06T09:31:46;95178.81;;;15.83;80.36
29239;BME280;16267;48.194;11.546;2023-08-06T09:34:20;95178.66;;;15.78;80.74
29239;BME280;16267;48.194;11.546;2023-08-06T09:36:57;95175.66;;;15.76;78.20
29239;BME280;16267;48.194;11.546;2023-08-06T09:39:30;95176.81;;;15.93;80.54
29239;BME280;16267;48.194;11.546;2023-08-06T09:41:58;95179.09;;;15.95;79.96
29239;BME280;16267;48.194;11.546;2023-08-06T09:44:26;95170.34;;;16.00;78.96
29239;BME280;16267;48.194;11.546;2023-08-06T09:46:55;95178.34;;;15.67;75.55
29239;BME280;16267;48.194;11.546;2023-08-06T09:49:26;95179.44;;;15.69;76.46
29239;BME280;16267;48.194;11.546;2023-08-06T09:51:53;95176.88;;;15.75;77.03
29239;BME280;16267;48.194;11.546;2023-08-06T09:54:23;95179.25;;;15.73;76.74
29239;BME280;16267;48.194;11.546;2023-08-06T09:56:50;95178.06;;;15.83;78.38
29239;BME280;16267;48.194;11.546;2023-08-06T09:59:17;95182.41;;;15.80;76.48
29239;BME280;16267;48.194;11.546;2023-08-06T10:01:43;95177.91;;;15.77;76.76
29239;BME280;16267;48.194;11.546;2023-08-06T10:04:10;95175.34;;;15.83;77.45
29239;BME280;16267;48.194;11.546;2023-08-06T10:06:38;95189.31;;;15.81;77.37
29239;BME280;16267;48.194;11.546;2023-08-06T10:09:04;95189.78;;;15.71;76.23
29239;BME280;16267;48.194;11.546;2023-08-06T10:11:30;95199.25;;;15.75;76.75
29239;BME280;16267;48.194;11.546;2023-08-06T10:14:11;95193.84;;;15.66;74.79
29239;BME280;16267;48.194;11.546;2023-08-06T10:16:41;95191.59;;;15.83;76.37
29239;BME280;16267;48.194;11.546;2023-08-06T10:19:10;95197.00;;;15.83;74.95
29239;BME280;16267;48.194;11.546;2023-08-06T10:21:38;95184.19;;;16.02;76.29
29239;BME280;16267;48.194;11.546;2023-08-06T10:24:07;95174.81;;;16.21;76.91
29239;BME280;16267;48.194;11.546;2023-08-06T10:26:36;95177.78;;;16.33;76.38
29239;BME280;16267;48.194;11.546;2023-08-06T10:29:37;95179.13;;;16.28;74.30
29239;BME280;16267;48.194;11.546;2023-08-06T10:32:04;95196.13;;;16.28;75.36
29239;BME280;16267;48.194;11.546;2023-08-06T10:34:56;95193.78;;;16.12;74.35
29239;BME280;16267;48.194;11.546;2023-08-06T10:37:23;95183.81;;;16.18;74.50
29239;BME280;16267;48.194;11.546;2023-08-06T10:39:52;95189.97;;;16.28;75.82
29239;BME280;16267;48.194;11.546;2023-08-06T10:42:36;95186.31;;;16.40;74.83
29239;BME280;16267;48.194;11.546;2023-08-06T10:45:19;95186.28;;;16.49;75.64
29239;BME280;16267;48.194;11.546;2023-08-06T10:47:45;95195.47;;;16.43;74.04
29239;BME280;16267;48.194;11.546;2023-08-06T10:50:16;95184.25;;;16.35;73.98
29239;BME280;16267;48.194;11.546;2023-08-06T10:52:47;95196.88;;;16.38;74.11
29239;BME280;16267;48.194;11.546;2023-08-06T10:55:14;95190.63;;;16.56;74.28
29239;BME280;16267;48.194;11.546;2023-08-06T10:57:40;95189.66;;;16.68;75.65
29239;BME280;16267;48.194;11.546;2023-08-06T11:00:08;95186.84;;;16.63;73.84
29239;BME280;16267;48.194;11.546;2023-08-06T11:02:36;95175.63;;;16.79;74.99
29239;BME280;16267;48.194;11.546;2023-08-06T11:05:10;95186.97;;;16.68;71.46
29239;BME280;16267;48.194;11.546;2023-08-06T11:07:37;95186.84;;;16.63;71.44
29239;BME280;16267;48.194;11.546;2023-08-06T11:10:09;95186.19;;;16.77;70.99
29239;BME280;16267;48.194;11.546;2023-08-06T11:12:35;95185.72;;;16.79;70.95
29239;BME280;16267;48.194;11.546;2023-08-06T11:15:03;95185.44;;;16.77;71.20
29239;BME280;16267;48.194;11.546;2023-08-06T11:17:30;95206.19;;;16.80;72.63
29239;BME280;16267;48.194;11.546;2023-08-06T11:20:01;95212.53;;;16.67;70.59
29239;BME280;16267;48.194;11.546;2023-08-06T11:22:27;95206.69;;;16.60;69.01
29239;BME280;16267;48.194;11.546;2023-08-06T11:24:54;95204.75;;;16.60;70.09
29239;BME280;16267;48.194;11.546;2023-08-06T11:27:20;95201.75;;;16.58;70.07
29239;BME280;16267;48.194;11.546;2023-08-06T11:29:46;95186.28;;;16.49;69.82
29239;BME280;16267;48.194;11.546;2023-08-06T11:32:12;95226.78;;;16.35;70.25
29239;BME280;16267;48.194;11.546;2023-08-06T11:34:40;95211.50;;;16.22;70.75
29239;BME280;16267;48.194;11.546;2023-08-06T11:37:07;95209.19;;;16.39;71.00
29239;BME280;16267;48.194;11.546;2023-08-06T11:39:37;95208.09;;;16.55;72.80
29239;BME280;16267;48.194;11.546;2023-08-06T11:42:05;95214.78;;;16.69;74.75
29239;BME280;16267;48.194;11.546;2023-08-06T11:44:36;95223.03;;;16.84;73.53
29239;BME280;16267;48.194;11.546;2023-08-06T11:47:22;95213.53;;;16.88;74.00
29239;BME280;16267;48.194;11.546;2023-08-06T11:49:49;95226.22;;;16.73;71.29
29239;BME280;16267;48.194;11.546;2023-08-06T11:52:25;95221.06;;;16.84;72.21
29239;BME280;16267;48.194;11.546;2023-08-06T11:55:08;95226.16;;;16.91;72.64
29239;BME280;16267;48.194;11.546;2023-08-06T11:57:45;95225.44;;;16.82;71.14
29239;BME280;16267;48.194;11.546;2023-08-06T12:00:13;95222.53;;;16.94;72.09
29239;BME280;16267;48.194;11.546;2023-08-06T12:02:41;95223.19;;;16.71;70.71
29239;BME280;16267;48.194;11.546;2023-08-06T12:05:18;95231.69;;;16.64;72.16
29239;BME280;16267;48.194;11.546;2023-08-06T12:07:48;95228.16;;;16.82;71.71
29239;BME280;16267;48.194;11.546;2023-08-06T12:10:39;95224.88;;;16.78;71.05
29239;BME280;16267;48.194;11.546;2023-08-06T12:13:12;95230.84;;;16.91;71.07
29239;BME280;16267;48.194;11.546;2023-08-06T12:15:57;95242.28;;;16.86;71.38
29239;BME280;16267;48.194;11.546;2023-08-06T12:18:23;95236.31;;;16.72;72.47
29239;BME280;16267;48.194;11.546;2023-08-06T12:21:00;95232.66;;;16.85;72.59
29239;BME280;16267;48.194;11.546;2023-08-06T12:23:49;95225.34;;;17.00;72.57
29239;BME280;16267;48.194;11.546;2023-08-06T12:26:14;95237.69;;;17.01;71.70
29239;BME280;16267;48.194;11.546;2023-08-06T12:28:52;95230.22;;;16.96;70.84
29239;BME280;16267;48.194;11.546;2023-08-06T12:31:43;95232.69;;;17.09;72.37
29239;BME280;16267;48.194;11.546;2023-08-06T12:34:19;95222.03;;;17.05;72.03
29239;BME280;16267;48.194;11.546;2023-08-06T12:36:46;95214.81;;;17.02;72.08
29239;BME280;16267;48.194;11.546;2023-08-06T12:39:20;95230.34;;;16.92;71.73
29239;BME280;16267;48.194;11.546;2023-08-06T12:42:41;95238.06;;;16.85;75.68
29239;BME280;16267;48.194;11.546;2023-08-06T12:45:24;95245.91;;;16.73;78.41
29239;BME280;16267;48.194;11.546;2023-08-06T12:48:32;95261.31;;;16.77;79.02
29239;BME280;16267;48.194;11.546;2023-08-06T12:51:09;95264.47;;;16.66;79.31
29239;BME280;16267;48.194;11.546;2023-08-06T12:56:40;95253.44;;;16.36;83.17
29239;BME280;16267;48.194;11.546;2023-08-06T12:59:29;95259.63;;;16.27;82.74
29239;BME280;16267;48.194;11.546;2023-08-06T13:02:10;95256.59;;;16.25;79.55
29239;BME280;16267;48.194;11.546;2023-08-06T13:04:36;95257.03;;;16.42;81.65
29239;BME280;16267;48.194;11.546;2023-08-06T13:07:02;95262.00;;;16.44;80.53